Nissho Maru No.18 — JG5001 — position and weather

sailwx.info

Track history (hours):
 
Tides and Currents Weather Stations Pressure Air Temp Water Temp Dewpoint Dewpoint Depression Visibility Wind Speed Wind Dir Waves Ship Positions

Nissho Maru No.18

Last reported at 2018-Jan-22 23:56 UTC. Time now 2018-Jan-23 00:10 UTC.
Position N 35°31' E 140°03'.

Length 76 m; draft 4.7 m.

Type: Tanker. MMSI: 431101028.

Date/timePositionNaut miles runAvg speedWind from/ knotsBaromVisibWave heightAir tempDewpointWater temp
2018-Jan-22 23:56N 35°31' E 140°03'0 0.0
2018-Jan-22 23:26N 35°31' E 140°03'0 0.0
2018-Jan-22 22:56N 35°31' E 140°03'0 0.0
2018-Jan-22 22:27N 35°31' E 140°03'0 0.0
2018-Jan-22 22:00N 35°31' E 140°03'1 2.9
2018-Jan-22 21:30N 35°32' E 140°01'0 0.0
2018-Jan-22 20:55N 35°32' E 140°01'0 0.0
2018-Jan-22 20:25N 35°32' E 140°01'0 0.0
2018-Jan-22 19:55N 35°32' E 140°01'0 0.0
2018-Jan-22 19:25N 35°32' E 140°01'0 0.0
2018-Jan-22 18:55N 35°32' E 140°01'0 0.0
2018-Jan-22 18:25N 35°32' E 140°01'0 0.0
2018-Jan-22 17:55N 35°32' E 140°01'0 0.0
2018-Jan-22 17:25N 35°32' E 140°01'0 0.0
2018-Jan-22 16:55N 35°32' E 140°01'0 0.0
2018-Jan-22 16:28N 35°32' E 140°01'0 0.1
2018-Jan-22 15:55N 35°32' E 140°01'0 0.1
2018-Jan-22 15:28N 35°32' E 140°01'0 0.0
2018-Jan-22 14:55N 35°32' E 140°01'0 0.0
2018-Jan-22 14:25N 35°32' E 140°01'0 0.0
2018-Jan-22 13:55N 35°32' E 140°01'0 0.1
2018-Jan-22 13:25N 35°32' E 140°01'0 0.0
2018-Jan-22 12:49N 35°32' E 140°01'0 0.0
2018-Jan-22 12:25N 35°32' E 140°01'0 0.1
2018-Jan-22 11:55N 35°32' E 140°01'0 0.0
2018-Jan-22 11:25N 35°32' E 140°01'0 0.0
2018-Jan-22 10:55N 35°32' E 140°01'0 0.1
2018-Jan-22 10:25N 35°32' E 140°01'0 0.0
2018-Jan-22 09:52N 35°32' E 140°01'0 0.0
2018-Jan-22 09:28N 35°32' E 140°01'0 0.0
2018-Jan-22 08:49N 35°32' E 140°01'0 0.0
2018-Jan-22 08:25N 35°32' E 140°01'2 5.0
2018-Jan-22 08:00N 35°33' E 140°03'4 7.2
2018-Jan-22 07:30N 35°36' E 140°05'0 0.0
2018-Jan-22 06:55N 35°36' E 140°05'0 0.1
2018-Jan-22 06:19N 35°36' E 140°05'0 0.0
2018-Jan-22 05:55N 35°36' E 140°05'0 0.0
2018-Jan-22 05:25N 35°36' E 140°05'0 0.0
2018-Jan-22 04:58N 35°36' E 140°05'1 2.1
2018-Jan-22 04:30N 35°35' E 140°04'911.7
2018-Jan-22 03:46N 35°31' E 139°55'311.4
2018-Jan-22 03:30N 35°29' E 139°52'611.5
2018-Jan-22 03:01N 35°26' E 139°47'611.0
2018-Jan-22 02:31N 35°24' E 139°41'1 2.7
2018-Jan-22 01:59N 35°25' E 139°39'0 0.1
2018-Jan-22 01:29N 35°25' E 139°39'0 0.0
2018-Jan-22 00:56N 35°25' E 139°39'0 0.1
2018-Jan-22 00:29N 35°25' E 139°39'0 0.0
2018-Jan-21 23:59N 35°25' E 139°39'0 0.0
2018-Jan-21 23:26N 35°25' E 139°39'0 0.7
2018-Jan-21 23:00N 35°24' E 139°39'3 6.0
2018-Jan-21 22:30N 35°25' E 139°43'713.7
2018-Jan-21 22:00N 35°29' E 139°50'813.5
2018-Jan-21 21:26N 35°33' E 139°57'3 7.5
2018-Jan-21 20:59N 35°36' E 140°01'0 0.0
2018-Jan-21 20:27N 35°36' E 140°01'0 0.0
2018-Jan-21 19:57N 35°36' E 140°01'0 0.0
2018-Jan-21 19:24N 35°36' E 140°01'0 0.0
2018-Jan-21 18:57N 35°36' E 140°01'0 0.0
2018-Jan-21 18:27N 35°36' E 140°01'0 0.0
2018-Jan-21 17:57N 35°36' E 140°01'0 0.0
2018-Jan-21 17:27N 35°36' E 140°01'0 0.0
2018-Jan-21 16:57N 35°36' E 140°01'0 0.0
2018-Jan-21 16:27N 35°36' E 140°01'0 0.0
2018-Jan-21 15:57N 35°36' E 140°01'0 0.0
2018-Jan-21 15:27N 35°36' E 140°01'0 0.0
2018-Jan-21 14:57N 35°36' E 140°01'0 0.0
2018-Jan-21 14:30N 35°36' E 140°01'0 0.0
2018-Jan-21 13:57N 35°36' E 140°01'0 0.0
2018-Jan-21 13:27N 35°36' E 140°01'0 0.0
2018-Jan-21 12:57N 35°36' E 140°01'0 0.0
2018-Jan-21 12:27N 35°36' E 140°01'0 0.0
2018-Jan-21 11:33N 35°36' E 140°01'0 0.3
2018-Jan-21 11:21N 35°36' E 140°01'0 0.1
2018-Jan-21 10:57N 35°36' E 140°01'0 0.0
2018-Jan-21 10:27N 35°36' E 140°01'0 0.0
2018-Jan-21 09:57N 35°36' E 140°01'0 0.0
2018-Jan-21 09:27N 35°36' E 140°01'0 0.0
2018-Jan-21 08:57N 35°36' E 140°01'0 0.0
2018-Jan-21 08:27N 35°36' E 140°01'2 4.6
2018-Jan-21 08:00N 35°35' E 140°03'2 3.0
2018-Jan-21 07:25N 35°36' E 140°05'0 0.0
2018-Jan-21 06:55N 35°36' E 140°05'0 0.0
2018-Jan-21 06:25N 35°36' E 140°05'0 0.0
2018-Jan-21 05:55N 35°36' E 140°05'0 0.0
2018-Jan-21 05:28N 35°36' E 140°05'0 0.0
2018-Jan-21 04:58N 35°36' E 140°05'1 1.6
2018-Jan-21 04:30N 35°35' E 140°05'2 2.7
2018-Jan-21 03:55N 35°36' E 140°03'0 0.1
2018-Jan-21 03:25N 35°36' E 140°03'0 0.0
2018-Jan-21 02:58N 35°36' E 140°03'0 0.0
2018-Jan-21 02:26N 35°36' E 140°03'0 0.0
2018-Jan-21 02:00N 35°36' E 140°03'2 3.1
2018-Jan-21 01:30N 35°35' E 140°02'611.1
2018-Jan-21 01:00N 35°29' E 140°00'0 0.2
2018-Jan-20 23:11N 35°29' E 140°01'0 0.0
2018-Jan-20 22:56N 35°29' E 140°01'0 0.1
2018-Jan-20 22:23N 35°29' E 140°01'0 0.1
2018-Jan-20 22:00N 35°29' E 140°01'2 3.2
2018-Jan-20 21:30N 35°30' E 140°00'611.8
2018-Jan-20 21:00N 35°35' E 140°04'2 3.8
2018-Jan-20 20:30N 35°36' E 140°06'0 0.0
2018-Jan-20 19:59N 35°36' E 140°06'0 0.0
2018-Jan-20 19:29N 35°36' E 140°06'0 0.0
2018-Jan-20 18:59N 35°36' E 140°06'0 0.0
2018-Jan-20 18:29N 35°36' E 140°06'0 0.0
2018-Jan-20 17:59N 35°36' E 140°06'0 0.0
2018-Jan-20 17:29N 35°36' E 140°06'0 0.0
2018-Jan-20 16:59N 35°36' E 140°06'0 0.0
2018-Jan-20 16:29N 35°36' E 140°06'0 0.0
2018-Jan-20 15:59N 35°36' E 140°06'0 0.0
2018-Jan-20 15:29N 35°36' E 140°06'0 0.0
2018-Jan-20 14:59N 35°36' E 140°06'0 0.0
2018-Jan-20 14:29N 35°36' E 140°06'0 0.0
2018-Jan-20 13:59N 35°36' E 140°06'0 0.0
2018-Jan-20 13:29N 35°36' E 140°06'0 0.0
2018-Jan-20 12:59N 35°36' E 140°06'0 0.0
2018-Jan-20 12:29N 35°36' E 140°06'0 0.0
2018-Jan-20 11:59N 35°36' E 140°06'0 0.0
2018-Jan-20 11:29N 35°36' E 140°06'0 0.0
2018-Jan-20 10:59N 35°36' E 140°06'0 0.0
2018-Jan-20 10:28N 35°36' E 140°06'0 0.0
2018-Jan-20 09:59N 35°36' E 140°06'0 0.0
2018-Jan-20 09:29N 35°36' E 140°06'0 0.0
2018-Jan-20 08:59N 35°36' E 140°06'0 0.0
2018-Jan-20 08:29N 35°36' E 140°06'0 0.0
2018-Jan-20 07:59N 35°36' E 140°06'0 0.0
2018-Jan-20 07:29N 35°36' E 140°06'0 0.0
2018-Jan-20 06:59N 35°36' E 140°06'0 0.0
2018-Jan-20 06:29N 35°36' E 140°06'0 0.0
2018-Jan-20 05:59N 35°36' E 140°06'0 0.0
2018-Jan-20 05:28N 35°36' E 140°06'0 0.0
2018-Jan-20 05:01N 35°36' E 140°06'0 0.0
2018-Jan-20 04:29N 35°36' E 140°06'0 0.0
2018-Jan-20 03:59N 35°36' E 140°06'0 0.0
2018-Jan-20 03:29N 35°36' E 140°06'0 0.0
2018-Jan-20 02:59N 35°36' E 140°06'0 0.0
2018-Jan-20 02:29N 35°36' E 140°06'0 0.0
2018-Jan-20 01:59N 35°36' E 140°06'0 0.0
2018-Jan-20 01:29N 35°36' E 140°06'0 0.0
2018-Jan-20 00:59N 35°36' E 140°06'0 0.0
2018-Jan-20 00:29N 35°36' E 140°06'0 0.0
2018-Jan-19 23:59N 35°36' E 140°06'0 0.0
2018-Jan-19 23:29N 35°36' E 140°06'0 0.0
2018-Jan-19 22:59N 35°36' E 140°06'0 0.0
2018-Jan-19 22:29N 35°36' E 140°06'0 0.0
2018-Jan-19 21:59N 35°36' E 140°06'0 0.0
2018-Jan-19 21:29N 35°36' E 140°06'0 0.0
2018-Jan-19 20:59N 35°36' E 140°06'0 0.0
2018-Jan-19 20:29N 35°36' E 140°06'0 0.0
2018-Jan-19 19:59N 35°36' E 140°06'0 0.0
2018-Jan-19 19:29N 35°36' E 140°06'0 0.0
2018-Jan-19 18:59N 35°36' E 140°06'0 0.0
2018-Jan-19 18:29N 35°36' E 140°06'0 0.0
2018-Jan-19 17:59N 35°36' E 140°06'0 0.0
2018-Jan-19 17:29N 35°36' E 140°06'0 0.0
2018-Jan-19 16:59N 35°36' E 140°06'0 0.0
2018-Jan-19 16:29N 35°36' E 140°06'0 0.0
2018-Jan-19 15:59N 35°36' E 140°06'0 0.0
2018-Jan-19 15:29N 35°36' E 140°06'0 0.0
2018-Jan-19 14:59N 35°36' E 140°06'0 0.0
2018-Jan-19 14:29N 35°36' E 140°06'0 0.0
2018-Jan-19 13:59N 35°36' E 140°06'0 0.0
2018-Jan-19 13:29N 35°36' E 140°06'0 0.0
2018-Jan-19 12:59N 35°36' E 140°06'0 0.0
2018-Jan-19 12:29N 35°36' E 140°06'0 0.0
2018-Jan-19 11:59N 35°36' E 140°06'0 0.0
2018-Jan-19 11:17N 35°36' E 140°06'0 0.0
2018-Jan-19 10:59N 35°36' E 140°06'0 0.0
2018-Jan-19 10:29N 35°36' E 140°06'0 0.0
2018-Jan-19 09:59N 35°36' E 140°06'0 0.0
2018-Jan-19 09:29N 35°36' E 140°06'0 0.0
2018-Jan-19 08:59N 35°36' E 140°06'0 0.0
2018-Jan-19 08:29N 35°36' E 140°06'0 0.0
2018-Jan-19 07:59N 35°36' E 140°06'2 5.1
2018-Jan-19 07:30N 35°35' E 140°04'1213.7
2018-Jan-19 06:39N 35°31' E 139°50'212.0
2018-Jan-19 06:30N 35°31' E 139°48'1 1.0
2018-Jan-19 05:59N 35°32' E 139°48'0 0.0
2018-Jan-19 05:30N 35°32' E 139°48'0 0.0
2018-Jan-19 04:50N 35°32' E 139°48'0 0.0
2018-Jan-19 04:29N 35°32' E 139°48'4 7.5
2018-Jan-19 03:59N 35°31' E 139°52'712.6
2018-Jan-19 03:24N 35°31' E 140°01'1 0.2
2018-Jan-18 22:04N 35°31' E 140°03'0 0.2
2018-Jan-18 22:00N 35°31' E 140°03'1 2.7
2018-Jan-18 21:30N 35°32' E 140°02'0 0.0
2018-Jan-18 20:59N 35°32' E 140°02'0 0.0
2018-Jan-18 20:29N 35°32' E 140°02'0 0.0
2018-Jan-18 19:59N 35°32' E 140°02'0 0.0
2018-Jan-18 19:29N 35°32' E 140°02'0 0.0
2018-Jan-18 18:53N 35°32' E 140°02'0 0.0
2018-Jan-18 18:29N 35°32' E 140°02'0 0.0
2018-Jan-18 17:59N 35°32' E 140°02'0 0.0
2018-Jan-18 17:29N 35°32' E 140°02'0 0.0
2018-Jan-18 16:53N 35°32' E 140°02'0 0.0
2018-Jan-18 16:23N 35°32' E 140°02'0 0.0
2018-Jan-18 15:59N 35°32' E 140°02'0 0.0
2018-Jan-18 15:29N 35°32' E 140°02'0 0.0
2018-Jan-18 14:53N 35°32' E 140°02'0 0.0
2018-Jan-18 14:26N 35°32' E 140°02'0 0.0
2018-Jan-18 12:53N 35°32' E 140°02'0 0.1
2018-Jan-18 12:29N 35°32' E 140°01'0 0.0
2018-Jan-18 11:59N 35°32' E 140°01'0 0.0
2018-Jan-18 11:29N 35°32' E 140°01'0 0.0
2018-Jan-18 10:59N 35°32' E 140°01'0 0.0
2018-Jan-18 10:29N 35°32' E 140°01'0 0.0
2018-Jan-18 09:59N 35°32' E 140°01'0 0.0
2018-Jan-18 09:29N 35°32' E 140°01'0 0.0
2018-Jan-18 08:59N 35°32' E 140°01'0 0.0
2018-Jan-18 08:26N 35°32' E 140°01'0 0.1
2018-Jan-18 07:59N 35°32' E 140°01'0 0.1
2018-Jan-18 07:29N 35°32' E 140°02'0 0.1
2018-Jan-18 06:57N 35°32' E 140°02'511.0
2018-Jan-18 06:30N 35°36' E 140°05'0 0.3
2018-Jan-18 05:56N 35°36' E 140°05'0 0.0
2018-Jan-18 05:26N 35°36' E 140°05'0 0.0
2018-Jan-18 04:56N 35°36' E 140°05'0 0.0
2018-Jan-18 04:26N 35°36' E 140°05'0 0.0
2018-Jan-18 03:56N 35°36' E 140°05'0 0.0
2018-Jan-18 03:30N 35°36' E 140°05'2 4.8
2018-Jan-18 03:00N 35°34' E 140°04'3 6.7
2018-Jan-18 02:30N 35°31' E 140°03'  
Track history (hours):
 
Tides and Currents Weather Stations Pressure Air Temp Water Temp Dewpoint Dewpoint Depression Visibility Wind Speed Wind Dir Waves Ship Positions

Nissho Maru No.18

Last reported at 2018-Jan-22 23:56 UTC. Time now 2018-Jan-23 00:10 UTC.
Position N 35°31' E 140°03'.

Length 76 m; draft 4.7 m.

Type: Tanker. MMSI: 431101028.

Date/timePositionNaut miles runAvg speedWind from/ knotsBaromVisibWave heightAir tempDewpointWater temp
2018-Jan-22 23:56N 35°31' E 140°03'0 0.0
2018-Jan-22 23:26N 35°31' E 140°03'0 0.0
2018-Jan-22 22:56N 35°31' E 140°03'0 0.0
2018-Jan-22 22:27N 35°31' E 140°03'0 0.0
2018-Jan-22 22:00N 35°31' E 140°03'1 2.9
2018-Jan-22 21:30N 35°32' E 140°01'0 0.0
2018-Jan-22 20:55N 35°32' E 140°01'0 0.0
2018-Jan-22 20:25N 35°32' E 140°01'0 0.0
2018-Jan-22 19:55N 35°32' E 140°01'0 0.0
2018-Jan-22 19:25N 35°32' E 140°01'0 0.0
2018-Jan-22 18:55N 35°32' E 140°01'0 0.0
2018-Jan-22 18:25N 35°32' E 140°01'0 0.0
2018-Jan-22 17:55N 35°32' E 140°01'0 0.0
2018-Jan-22 17:25N 35°32' E 140°01'0 0.0
2018-Jan-22 16:55N 35°32' E 140°01'0 0.0
2018-Jan-22 16:28N 35°32' E 140°01'0 0.1
2018-Jan-22 15:55N 35°32' E 140°01'0 0.1
2018-Jan-22 15:28N 35°32' E 140°01'0 0.0
2018-Jan-22 14:55N 35°32' E 140°01'0 0.0
2018-Jan-22 14:25N 35°32' E 140°01'0 0.0
2018-Jan-22 13:55N 35°32' E 140°01'0 0.1
2018-Jan-22 13:25N 35°32' E 140°01'0 0.0
2018-Jan-22 12:49N 35°32' E 140°01'0 0.0
2018-Jan-22 12:25N 35°32' E 140°01'0 0.1
2018-Jan-22 11:55N 35°32' E 140°01'0 0.0
2018-Jan-22 11:25N 35°32' E 140°01'0 0.0
2018-Jan-22 10:55N 35°32' E 140°01'0 0.1
2018-Jan-22 10:25N 35°32' E 140°01'0 0.0
2018-Jan-22 09:52N 35°32' E 140°01'0 0.0
2018-Jan-22 09:28N 35°32' E 140°01'0 0.0
2018-Jan-22 08:49N 35°32' E 140°01'0 0.0
2018-Jan-22 08:25N 35°32' E 140°01'2 5.0
2018-Jan-22 08:00N 35°33' E 140°03'4 7.2
2018-Jan-22 07:30N 35°36' E 140°05'0 0.0
2018-Jan-22 06:55N 35°36' E 140°05'0 0.1
2018-Jan-22 06:19N 35°36' E 140°05'0 0.0
2018-Jan-22 05:55N 35°36' E 140°05'0 0.0
2018-Jan-22 05:25N 35°36' E 140°05'0 0.0
2018-Jan-22 04:58N 35°36' E 140°05'1 2.1
2018-Jan-22 04:30N 35°35' E 140°04'911.7
2018-Jan-22 03:46N 35°31' E 139°55'311.4
2018-Jan-22 03:30N 35°29' E 139°52'611.5
2018-Jan-22 03:01N 35°26' E 139°47'611.0
2018-Jan-22 02:31N 35°24' E 139°41'1 2.7
2018-Jan-22 01:59N 35°25' E 139°39'0 0.1
2018-Jan-22 01:29N 35°25' E 139°39'0 0.0
2018-Jan-22 00:56N 35°25' E 139°39'0 0.1
2018-Jan-22 00:29N 35°25' E 139°39'0 0.0
2018-Jan-21 23:59N 35°25' E 139°39'0 0.0
2018-Jan-21 23:26N 35°25' E 139°39'0 0.7
2018-Jan-21 23:00N 35°24' E 139°39'3 6.0
2018-Jan-21 22:30N 35°25' E 139°43'713.7
2018-Jan-21 22:00N 35°29' E 139°50'813.5
2018-Jan-21 21:26N 35°33' E 139°57'3 7.5
2018-Jan-21 20:59N 35°36' E 140°01'0 0.0
2018-Jan-21 20:27N 35°36' E 140°01'0 0.0
2018-Jan-21 19:57N 35°36' E 140°01'0 0.0
2018-Jan-21 19:24N 35°36' E 140°01'0 0.0
2018-Jan-21 18:57N 35°36' E 140°01'0 0.0
2018-Jan-21 18:27N 35°36' E 140°01'0 0.0
2018-Jan-21 17:57N 35°36' E 140°01'0 0.0
2018-Jan-21 17:27N 35°36' E 140°01'0 0.0
2018-Jan-21 16:57N 35°36' E 140°01'0 0.0
2018-Jan-21 16:27N 35°36' E 140°01'0 0.0
2018-Jan-21 15:57N 35°36' E 140°01'0 0.0
2018-Jan-21 15:27N 35°36' E 140°01'0 0.0
2018-Jan-21 14:57N 35°36' E 140°01'0 0.0
2018-Jan-21 14:30N 35°36' E 140°01'0 0.0
2018-Jan-21 13:57N 35°36' E 140°01'0 0.0
2018-Jan-21 13:27N 35°36' E 140°01'0 0.0
2018-Jan-21 12:57N 35°36' E 140°01'0 0.0
2018-Jan-21 12:27N 35°36' E 140°01'0 0.0
2018-Jan-21 11:33N 35°36' E 140°01'0 0.3
2018-Jan-21 11:21N 35°36' E 140°01'0 0.1
2018-Jan-21 10:57N 35°36' E 140°01'0 0.0
2018-Jan-21 10:27N 35°36' E 140°01'0 0.0
2018-Jan-21 09:57N 35°36' E 140°01'0 0.0
2018-Jan-21 09:27N 35°36' E 140°01'0 0.0
2018-Jan-21 08:57N 35°36' E 140°01'0 0.0
2018-Jan-21 08:27N 35°36' E 140°01'2 4.6
2018-Jan-21 08:00N 35°35' E 140°03'2 3.0
2018-Jan-21 07:25N 35°36' E 140°05'0 0.0
2018-Jan-21 06:55N 35°36' E 140°05'0 0.0
2018-Jan-21 06:25N 35°36' E 140°05'0 0.0
2018-Jan-21 05:55N 35°36' E 140°05'0 0.0
2018-Jan-21 05:28N 35°36' E 140°05'0 0.0
2018-Jan-21 04:58N 35°36' E 140°05'1 1.6
2018-Jan-21 04:30N 35°35' E 140°05'2 2.7
2018-Jan-21 03:55N 35°36' E 140°03'0 0.1
2018-Jan-21 03:25N 35°36' E 140°03'0 0.0
2018-Jan-21 02:58N 35°36' E 140°03'0 0.0
2018-Jan-21 02:26N 35°36' E 140°03'0 0.0
2018-Jan-21 02:00N 35°36' E 140°03'2 3.1
2018-Jan-21 01:30N 35°35' E 140°02'611.1
2018-Jan-21 01:00N 35°29' E 140°00'0 0.2
2018-Jan-20 23:11N 35°29' E 140°01'0 0.0
2018-Jan-20 22:56N 35°29' E 140°01'0 0.1
2018-Jan-20 22:23N 35°29' E 140°01'0 0.1
2018-Jan-20 22:00N 35°29' E 140°01'2 3.2
2018-Jan-20 21:30N 35°30' E 140°00'611.8
2018-Jan-20 21:00N 35°35' E 140°04'2 3.8
2018-Jan-20 20:30N 35°36' E 140°06'0 0.0
2018-Jan-20 19:59N 35°36' E 140°06'0 0.0
2018-Jan-20 19:29N 35°36' E 140°06'0 0.0
2018-Jan-20 18:59N 35°36' E 140°06'0 0.0
2018-Jan-20 18:29N 35°36' E 140°06'0 0.0
2018-Jan-20 17:59N 35°36' E 140°06'0 0.0
2018-Jan-20 17:29N 35°36' E 140°06'0 0.0
2018-Jan-20 16:59N 35°36' E 140°06'0 0.0
2018-Jan-20 16:29N 35°36' E 140°06'0 0.0
2018-Jan-20 15:59N 35°36' E 140°06'0 0.0
2018-Jan-20 15:29N 35°36' E 140°06'0 0.0
2018-Jan-20 14:59N 35°36' E 140°06'0 0.0
2018-Jan-20 14:29N 35°36' E 140°06'0 0.0
2018-Jan-20 13:59N 35°36' E 140°06'0 0.0
2018-Jan-20 13:29N 35°36' E 140°06'0 0.0
2018-Jan-20 12:59N 35°36' E 140°06'0 0.0
2018-Jan-20 12:29N 35°36' E 140°06'0 0.0
2018-Jan-20 11:59N 35°36' E 140°06'0 0.0
2018-Jan-20 11:29N 35°36' E 140°06'0 0.0
2018-Jan-20 10:59N 35°36' E 140°06'0 0.0
2018-Jan-20 10:28N 35°36' E 140°06'0 0.0
2018-Jan-20 09:59N 35°36' E 140°06'0 0.0
2018-Jan-20 09:29N 35°36' E 140°06'0 0.0
2018-Jan-20 08:59N 35°36' E 140°06'0 0.0
2018-Jan-20 08:29N 35°36' E 140°06'0 0.0
2018-Jan-20 07:59N 35°36' E 140°06'0 0.0
2018-Jan-20 07:29N 35°36' E 140°06'0 0.0
2018-Jan-20 06:59N 35°36' E 140°06'0 0.0
2018-Jan-20 06:29N 35°36' E 140°06'0 0.0
2018-Jan-20 05:59N 35°36' E 140°06'0 0.0
2018-Jan-20 05:28N 35°36' E 140°06'0 0.0
2018-Jan-20 05:01N 35°36' E 140°06'0 0.0
2018-Jan-20 04:29N 35°36' E 140°06'0 0.0
2018-Jan-20 03:59N 35°36' E 140°06'0 0.0
2018-Jan-20 03:29N 35°36' E 140°06'0 0.0
2018-Jan-20 02:59N 35°36' E 140°06'0 0.0
2018-Jan-20 02:29N 35°36' E 140°06'0 0.0
2018-Jan-20 01:59N 35°36' E 140°06'0 0.0
2018-Jan-20 01:29N 35°36' E 140°06'0 0.0
2018-Jan-20 00:59N 35°36' E 140°06'0 0.0
2018-Jan-20 00:29N 35°36' E 140°06'0 0.0
2018-Jan-19 23:59N 35°36' E 140°06'0 0.0
2018-Jan-19 23:29N 35°36' E 140°06'0 0.0
2018-Jan-19 22:59N 35°36' E 140°06'0 0.0
2018-Jan-19 22:29N 35°36' E 140°06'0 0.0
2018-Jan-19 21:59N 35°36' E 140°06'0 0.0
2018-Jan-19 21:29N 35°36' E 140°06'0 0.0
2018-Jan-19 20:59N 35°36' E 140°06'0 0.0
2018-Jan-19 20:29N 35°36' E 140°06'0 0.0
2018-Jan-19 19:59N 35°36' E 140°06'0 0.0
2018-Jan-19 19:29N 35°36' E 140°06'0 0.0
2018-Jan-19 18:59N 35°36' E 140°06'0 0.0
2018-Jan-19 18:29N 35°36' E 140°06'0 0.0
2018-Jan-19 17:59N 35°36' E 140°06'0 0.0
2018-Jan-19 17:29N 35°36' E 140°06'0 0.0
2018-Jan-19 16:59N 35°36' E 140°06'0 0.0
2018-Jan-19 16:29N 35°36' E 140°06'0 0.0
2018-Jan-19 15:59N 35°36' E 140°06'0 0.0
2018-Jan-19 15:29N 35°36' E 140°06'0 0.0
2018-Jan-19 14:59N 35°36' E 140°06'0 0.0
2018-Jan-19 14:29N 35°36' E 140°06'0 0.0
2018-Jan-19 13:59N 35°36' E 140°06'0 0.0
2018-Jan-19 13:29N 35°36' E 140°06'0 0.0
2018-Jan-19 12:59N 35°36' E 140°06'0 0.0
2018-Jan-19 12:29N 35°36' E 140°06'0 0.0
2018-Jan-19 11:59N 35°36' E 140°06'0 0.0
2018-Jan-19 11:17N 35°36' E 140°06'0 0.0
2018-Jan-19 10:59N 35°36' E 140°06'0 0.0
2018-Jan-19 10:29N 35°36' E 140°06'0 0.0
2018-Jan-19 09:59N 35°36' E 140°06'0 0.0
2018-Jan-19 09:29N 35°36' E 140°06'0 0.0
2018-Jan-19 08:59N 35°36' E 140°06'0 0.0
2018-Jan-19 08:29N 35°36' E 140°06'0 0.0
2018-Jan-19 07:59N 35°36' E 140°06'2 5.1
2018-Jan-19 07:30N 35°35' E 140°04'1213.7
2018-Jan-19 06:39N 35°31' E 139°50'212.0
2018-Jan-19 06:30N 35°31' E 139°48'1 1.0
2018-Jan-19 05:59N 35°32' E 139°48'0 0.0
2018-Jan-19 05:30N 35°32' E 139°48'0 0.0
2018-Jan-19 04:50N 35°32' E 139°48'0 0.0
2018-Jan-19 04:29N 35°32' E 139°48'4 7.5
2018-Jan-19 03:59N 35°31' E 139°52'712.6
2018-Jan-19 03:24N 35°31' E 140°01'1 0.2
2018-Jan-18 22:04N 35°31' E 140°03'0 0.2
2018-Jan-18 22:00N 35°31' E 140°03'1 2.7
2018-Jan-18 21:30N 35°32' E 140°02'0 0.0
2018-Jan-18 20:59N 35°32' E 140°02'0 0.0
2018-Jan-18 20:29N 35°32' E 140°02'0 0.0
2018-Jan-18 19:59N 35°32' E 140°02'0 0.0
2018-Jan-18 19:29N 35°32' E 140°02'0 0.0
2018-Jan-18 18:53N 35°32' E 140°02'0 0.0
2018-Jan-18 18:29N 35°32' E 140°02'0 0.0
2018-Jan-18 17:59N 35°32' E 140°02'0 0.0
2018-Jan-18 17:29N 35°32' E 140°02'0 0.0
2018-Jan-18 16:53N 35°32' E 140°02'0 0.0
2018-Jan-18 16:23N 35°32' E 140°02'0 0.0
2018-Jan-18 15:59N 35°32' E 140°02'0 0.0
2018-Jan-18 15:29N 35°32' E 140°02'0 0.0
2018-Jan-18 14:53N 35°32' E 140°02'0 0.0
2018-Jan-18 14:26N 35°32' E 140°02'0 0.0
2018-Jan-18 12:53N 35°32' E 140°02'0 0.1
2018-Jan-18 12:29N 35°32' E 140°01'0 0.0
2018-Jan-18 11:59N 35°32' E 140°01'0 0.0
2018-Jan-18 11:29N 35°32' E 140°01'0 0.0
2018-Jan-18 10:59N 35°32' E 140°01'0 0.0
2018-Jan-18 10:29N 35°32' E 140°01'0 0.0
2018-Jan-18 09:59N 35°32' E 140°01'0 0.0
2018-Jan-18 09:29N 35°32' E 140°01'0 0.0
2018-Jan-18 08:59N 35°32' E 140°01'0 0.0
2018-Jan-18 08:26N 35°32' E 140°01'0 0.1
2018-Jan-18 07:59N 35°32' E 140°01'0 0.1
2018-Jan-18 07:29N 35°32' E 140°02'0 0.1
2018-Jan-18 06:57N 35°32' E 140°02'511.0
2018-Jan-18 06:30N 35°36' E 140°05'0 0.3
2018-Jan-18 05:56N 35°36' E 140°05'0 0.0
2018-Jan-18 05:26N 35°36' E 140°05'0 0.0
2018-Jan-18 04:56N 35°36' E 140°05'0 0.0
2018-Jan-18 04:26N 35°36' E 140°05'0 0.0
2018-Jan-18 03:56N 35°36' E 140°05'0 0.0
2018-Jan-18 03:30N 35°36' E 140°05'2 4.8
2018-Jan-18 03:00N 35°34' E 140°04'3 6.7
2018-Jan-18 02:30N 35°31' E 140°03'  

Dump ship's entire track history